Grizzly Air Cargo 5122


KSMF
Sacramento International Airport
Sacramento, California, US
PANC
Ted Stevens Anchorage International Airport
Anchorage, Alaska, US

Route Details

Aircraft Information
Primary: Boeing 737-800BCF
Backup: Not Available
Route Data
Distance: 1714nm
Sched. Duration: 3h 58m
Avg. Duration: 4h 34m (+76m)
Times Flown: 3
Recm'd Route: ILA OED J501 HQM J501 TOU J523 YZT J502 ANN J195 BKA J501 JOH WITTI4
Planned Altitude: 38,000ft
Origin Wx: KSMF 281053Z 00000KT 10SM FEW250 09/06 A3013 RMK AO2 SLP201 T00890056
Dest. Wx: PANC 281053Z 12003KT 10SM CLR M11/M13 A2973 RMK AO2 SLP069 I1001 T11111128 $
Notes:

Financial History
Total Freight: 41,185lbs
Average Load: 13,728lbs/flt
Fuel Used: 66,052lbs
Avg. Fuel Used: 22,017lbs/flt
Fuel Expense: $71,997
Avg. Fuel Expense: $23,999
Avg. Fuel Cost: $1.09/lbs
Total Gross Income: $67,955
Pilot Pay: $527
Total Expenses: $7,495
Total Revenue: $-14,137
Average Revenue: $22,651.75